sensor_id;sensor_type;location;lat;lon;timestamp;pressure;altitude;pressure_sealevel;temperature;humidity
42591;BME280;28218;53.342;-6.216;2024-03-23T00:54:16;101503.94;;;6.42;100.00
42591;BME280;28218;53.342;-6.216;2024-03-23T00:56:42;101504.63;;;6.44;100.00
42591;BME280;28218;53.342;-6.216;2024-03-23T00:59:09;101493.09;;;6.46;100.00
42591;BME280;28218;53.342;-6.216;2024-03-23T01:01:35;101502.16;;;6.42;100.00
42591;BME280;28218;53.342;-6.216;2024-03-23T01:04:02;101503.81;;;6.43;100.00
42591;BME280;28218;53.342;-6.216;2024-03-23T01:06:28;101500.22;;;6.44;100.00
42591;BME280;28218;53.342;-6.216;2024-03-23T01:08:56;101488.69;;;6.47;100.00
42591;BME280;28218;53.342;-6.216;2024-03-23T01:11:21;101500.81;;;6.48;100.00
42591;BME280;28218;53.342;-6.216;2024-03-23T01:13:49;101508.22;;;6.43;100.00
42591;BME280;28218;53.342;-6.216;2024-03-23T01:16:15;101498.56;;;6.43;100.00
42591;BME280;28218;53.342;-6.216;2024-03-23T01:18:42;101513.81;;;6.38;100.00
42591;BME280;28218;53.342;-6.216;2024-03-23T01:21:08;101495.63;;;6.36;100.00
42591;BME280;28218;53.342;-6.216;2024-03-23T01:23:35;101501.31;;;6.42;100.00
42591;BME280;28218;53.342;-6.216;2024-03-23T01:26:01;101487.25;;;6.43;100.00
42591;BME280;28218;53.342;-6.216;2024-03-23T01:28:28;101493.91;;;6.47;100.00
42591;BME280;28218;53.342;-6.216;2024-03-23T01:30:53;101490.34;;;6.48;100.00
42591;BME280;28218;53.342;-6.216;2024-03-23T01:33:20;101498.66;;;6.53;100.00
42591;BME280;28218;53.342;-6.216;2024-03-23T01:35:47;101494.00;;;6.56;100.00
42591;BME280;28218;53.342;-6.216;2024-03-23T01:38:14;101487.94;;;6.56;100.00
42591;BME280;28218;53.342;-6.216;2024-03-23T01:40:40;101494.38;;;6.52;100.00
42591;BME280;28218;53.342;-6.216;2024-03-23T01:43:07;101477.03;;;6.51;100.00
42591;BME280;28218;53.342;-6.216;2024-03-23T01:45:34;101480.69;;;6.48;100.00
42591;BME280;28218;53.342;-6.216;2024-03-23T01:48:01;101466.91;;;6.46;100.00
42591;BME280;28218;53.342;-6.216;2024-03-23T01:50:28;101476.56;;;6.46;100.00
42591;BME280;28218;53.342;-6.216;2024-03-23T01:53:01;101476.56;;;6.46;100.00
42591;BME280;28218;53.342;-6.216;2024-03-23T01:55:28;101469.66;;;6.45;100.00
42591;BME280;28218;53.342;-6.216;2024-03-23T01:57:59;101454.66;;;6.47;100.00
42591;BME280;28218;53.342;-6.216;2024-03-23T02:00:25;101456.09;;;6.39;100.00
42591;BME280;28218;53.342;-6.216;2024-03-23T02:02:53;101459.94;;;6.35;100.00
42591;BME280;28218;53.342;-6.216;2024-03-23T02:05:20;101472.75;;;6.38;100.00
42591;BME280;28218;53.342;-6.216;2024-03-23T02:07:47;101470.03;;;6.40;100.00
42591;BME280;28218;53.342;-6.216;2024-03-23T02:10:13;101464.66;;;6.42;100.00
42591;BME280;28218;53.342;-6.216;2024-03-23T02:12:40;101461.69;;;6.46;100.00
42591;BME280;28218;53.342;-6.216;2024-03-23T02:15:07;101467.06;;;6.45;100.00
42591;BME280;28218;53.342;-6.216;2024-03-23T02:17:35;101464.44;;;6.45;100.00
42591;BME280;28218;53.342;-6.216;2024-03-23T02:20:02;101467.16;;;6.43;100.00
42591;BME280;28218;53.342;-6.216;2024-03-23T02:22:38;101465.50;;;6.42;100.00
42591;BME280;28218;53.342;-6.216;2024-03-23T02:25:05;101470.13;;;6.38;100.00
42591;BME280;28218;53.342;-6.216;2024-03-23T02:27:33;101475.63;;;6.35;100.00
42591;BME280;28218;53.342;-6.216;2024-03-23T02:30:00;101464.66;;;6.42;100.00
42591;BME280;28218;53.342;-6.216;2024-03-23T02:32:27;101458.69;;;6.39;100.00
42591;BME280;28218;53.342;-6.216;2024-03-23T02:34:53;101455.53;;;6.36;100.00
42591;BME280;28218;53.342;-6.216;2024-03-23T02:37:20;101447.53;;;6.37;100.00
42591;BME280;28218;53.342;-6.216;2024-03-23T02:39:46;101444.31;;;6.34;100.00
42591;BME280;28218;53.342;-6.216;2024-03-23T02:42:13;101450.38;;;6.34;100.00
42591;BME280;28218;53.342;-6.216;2024-03-23T02:44:39;101446.47;;;6.40;100.00
42591;BME280;28218;53.342;-6.216;2024-03-23T02:47:06;101446.66;;;6.48;100.00
42591;BME280;28218;53.342;-6.216;2024-03-23T02:49:32;101444.63;;;6.52;100.00
42591;BME280;28218;53.342;-6.216;2024-03-23T02:51:59;101436.28;;;6.58;100.00
42591;BME280;28218;53.342;-6.216;2024-03-23T02:54:24;101425.56;;;6.61;100.00
42591;BME280;28218;53.342;-6.216;2024-03-23T02:56:52;101445.31;;;6.65;100.00
42591;BME280;28218;53.342;-6.216;2024-03-23T02:59:17;101429.84;;;6.62;100.00
42591;BME280;28218;53.342;-6.216;2024-03-23T03:01:44;101425.78;;;6.69;100.00
42591;BME280;28218;53.342;-6.216;2024-03-23T03:04:10;101417.53;;;6.74;100.00
42591;BME280;28218;53.342;-6.216;2024-03-23T03:06:38;101418.09;;;6.77;100.00
42591;BME280;28218;53.342;-6.216;2024-03-23T03:09:04;101429.53;;;6.76;100.00
42591;BME280;28218;53.342;-6.216;2024-03-23T03:11:31;101426.22;;;6.74;100.00
42591;BME280;28218;53.342;-6.216;2024-03-23T03:13:57;101424.56;;;6.73;100.00
42591;BME280;28218;53.342;-6.216;2024-03-23T03:16:26;101414.53;;;6.78;100.00
42591;BME280;28218;53.342;-6.216;2024-03-23T03:18:52;101403.78;;;6.81;100.00
42591;BME280;28218;53.342;-6.216;2024-03-23T03:21:19;101404.53;;;6.83;100.00
42591;BME280;28218;53.342;-6.216;2024-03-23T03:23:45;101399.97;;;6.85;100.00
42591;BME280;28218;53.342;-6.216;2024-03-23T03:26:16;101395.94;;;6.81;100.00
42591;BME280;28218;53.342;-6.216;2024-03-23T03:28:42;101406.31;;;6.83;100.00
42591;BME280;28218;53.342;-6.216;2024-03-23T03:31:18;101395.00;;;6.82;100.00
42591;BME280;28218;53.342;-6.216;2024-03-23T03:33:44;101388.06;;;6.81;100.00
42591;BME280;28218;53.342;-6.216;2024-03-23T03:36:11;101381.44;;;6.77;100.00
42591;BME280;28218;53.342;-6.216;2024-03-23T03:38:37;101392.28;;;6.73;100.00
42591;BME280;28218;53.342;-6.216;2024-03-23T03:41:05;101374.22;;;6.70;100.00
42591;BME280;28218;53.342;-6.216;2024-03-23T03:43:32;101380.44;;;6.69;100.00
42591;BME280;28218;53.342;-6.216;2024-03-23T03:46:00;101373.94;;;6.73;100.00
42591;BME280;28218;53.342;-6.216;2024-03-23T03:48:26;101373.13;;;6.72;100.00
42591;BME280;28218;53.342;-6.216;2024-03-23T03:50:54;101356.97;;;6.67;100.00
42591;BME280;28218;53.342;-6.216;2024-03-23T03:53:20;101357.56;;;6.71;100.00
42591;BME280;28218;53.342;-6.216;2024-03-23T03:55:47;101345.41;;;6.70;100.00
42591;BME280;28218;53.342;-6.216;2024-03-23T03:58:13;101343.88;;;6.67;100.00
42591;BME280;28218;53.342;-6.216;2024-03-23T04:00:41;101350.22;;;6.64;100.00
42591;BME280;28218;53.342;-6.216;2024-03-23T04:03:07;101332.13;;;6.61;100.00
42591;BME280;28218;53.342;-6.216;2024-03-23T04:05:34;101324.50;;;6.58;100.00
42591;BME280;28218;53.342;-6.216;2024-03-23T04:08:00;101330.72;;;6.57;100.00
42591;BME280;28218;53.342;-6.216;2024-03-23T04:10:27;101329.75;;;6.58;100.00
42591;BME280;28218;53.342;-6.216;2024-03-23T04:12:53;101320.13;;;6.59;100.00
42591;BME280;28218;53.342;-6.216;2024-03-23T04:15:20;101327.13;;;6.58;100.00
42591;BME280;28218;53.342;-6.216;2024-03-23T04:17:46;101314.19;;;6.57;100.00
42591;BME280;28218;53.342;-6.216;2024-03-23T04:20:13;101314.56;;;6.52;100.00
42591;BME280;28218;53.342;-6.216;2024-03-23T04:22:43;101308.72;;;6.49;100.00
42591;BME280;28218;53.342;-6.216;2024-03-23T04:25:11;101308.03;;;6.47;100.00
42591;BME280;28218;53.342;-6.216;2024-03-23T04:27:37;101306.41;;;6.46;100.00
42591;BME280;28218;53.342;-6.216;2024-03-23T04:30:04;101299.50;;;6.45;100.00
42591;BME280;28218;53.342;-6.216;2024-03-23T04:32:37;101298.91;;;6.41;100.00
42591;BME280;28218;53.342;-6.216;2024-03-23T04:35:04;101300.72;;;6.40;100.00
42591;BME280;28218;53.342;-6.216;2024-03-23T04:37:34;101288.31;;;6.43;100.00
42591;BME280;28218;53.342;-6.216;2024-03-23T04:40:01;101286.66;;;6.42;100.00
42591;BME280;28218;53.342;-6.216;2024-03-23T04:42:29;101286.91;;;6.38;100.00
42591;BME280;28218;53.342;-6.216;2024-03-23T04:44:56;101283.31;;;6.39;100.00
42591;BME280;28218;53.342;-6.216;2024-03-23T04:47:24;101286.91;;;6.38;100.00
42591;BME280;28218;53.342;-6.216;2024-03-23T04:49:51;101278.66;;;6.43;100.00
42591;BME280;28218;53.342;-6.216;2024-03-23T04:52:19;101283.06;;;6.43;100.00
42591;BME280;28218;53.342;-6.216;2024-03-23T04:54:45;101288.06;;;6.46;100.00
42591;BME280;28218;53.342;-6.216;2024-03-23T04:57:12;101281.28;;;6.43;100.00
42591;BME280;28218;53.342;-6.216;2024-03-23T04:59:38;101276.19;;;6.42;100.00
42591;BME280;28218;53.342;-6.216;2024-03-23T05:02:05;101255.50;;;6.38;100.00
42591;BME280;28218;53.342;-6.216;2024-03-23T05:04:31;101256.91;;;6.43;100.00
42591;BME280;28218;53.342;-6.216;2024-03-23T05:06:58;101257.63;;;6.45;100.00
42591;BME280;28218;53.342;-6.216;2024-03-23T05:09:25;101260.47;;;6.42;100.00
42591;BME280;28218;53.342;-6.216;2024-03-23T05:11:56;101254.53;;;6.39;100.00
42591;BME280;28218;53.342;-6.216;2024-03-23T05:14:22;101260.47;;;6.42;100.00
42591;BME280;28218;53.342;-6.216;2024-03-23T05:16:49;101253.00;;;6.37;100.00
42591;BME280;28218;53.342;-6.216;2024-03-23T05:19:15;101248.84;;;6.34;100.00
42591;BME280;28218;53.342;-6.216;2024-03-23T05:21:42;101245.28;;;6.35;100.00
42591;BME280;28218;53.342;-6.216;2024-03-23T05:24:08;101238.81;;;6.39;100.00
42591;BME280;28218;53.342;-6.216;2024-03-23T05:26:35;101233.47;;;6.41;100.00
42591;BME280;28218;53.342;-6.216;2024-03-23T05:29:02;101234.16;;;6.43;100.00
42591;BME280;28218;53.342;-6.216;2024-03-23T05:31:31;101238.19;;;6.47;100.00
42591;BME280;28218;53.342;-6.216;2024-03-23T05:33:57;101237.38;;;6.47;100.00
42591;BME280;28218;53.342;-6.216;2024-03-23T05:36:24;101229.38;;;6.48;100.00
42591;BME280;28218;53.342;-6.216;2024-03-23T05:38:50;101229.25;;;6.50;100.00
42591;BME280;28218;53.342;-6.216;2024-03-23T05:41:17;101230.19;;;6.49;100.00
42591;BME280;28218;53.342;-6.216;2024-03-23T05:43:43;101229.38;;;6.48;100.00
42591;BME280;28218;53.342;-6.216;2024-03-23T05:46:10;101223.75;;;6.53;100.00
42591;BME280;28218;53.342;-6.216;2024-03-23T05:48:36;101225.16;;;6.57;100.00
42591;BME280;28218;53.342;-6.216;2024-03-23T05:51:03;101223.50;;;6.56;100.00
42591;BME280;28218;53.342;-6.216;2024-03-23T05:53:29;101226.13;;;6.56;100.00
42591;BME280;28218;53.342;-6.216;2024-03-23T05:56:01;101236.44;;;6.57;100.00
42591;BME280;28218;53.342;-6.216;2024-03-23T05:58:29;101223.25;;;6.59;100.00
42591;BME280;28218;53.342;-6.216;2024-03-23T06:00:58;101224.75;;;6.61;100.00
42591;BME280;28218;53.342;-6.216;2024-03-23T06:03:25;101239.41;;;6.64;100.00
42591;BME280;28218;53.342;-6.216;2024-03-23T06:05:52;101231.53;;;6.64;100.00
42591;BME280;28218;53.342;-6.216;2024-03-23T06:08:18;101232.22;;;6.66;100.00
42591;BME280;28218;53.342;-6.216;2024-03-23T06:10:46;101242.72;;;6.66;100.00
42591;BME280;28218;53.342;-6.216;2024-03-23T06:13:12;101233.63;;;6.70;100.00
42591;BME280;28218;53.342;-6.216;2024-03-23T06:15:40;101228.16;;;6.73;100.00
42591;BME280;28218;53.342;-6.216;2024-03-23T06:18:06;101219.84;;;6.68;100.00
42591;BME280;28218;53.342;-6.216;2024-03-23T06:20:34;101208.81;;;6.64;100.00
42591;BME280;28218;53.342;-6.216;2024-03-23T06:23:01;101210.84;;;6.61;100.00
42591;BME280;28218;53.342;-6.216;2024-03-23T06:25:29;101225.00;;;6.58;100.00
42591;BME280;28218;53.342;-6.216;2024-03-23T06:27:55;101218.13;;;6.57;100.00
42591;BME280;28218;53.342;-6.216;2024-03-23T06:30:24;101221.56;;;6.58;100.00
42591;BME280;28218;53.342;-6.216;2024-03-23T06:32:50;101216.63;;;6.55;100.00
42591;BME280;28218;53.342;-6.216;2024-03-23T06:35:18;101212.06;;;6.57;100.00
42591;BME280;28218;53.342;-6.216;2024-03-23T06:37:44;101216.63;;;6.55;100.00
42591;BME280;28218;53.342;-6.216;2024-03-23T06:40:11;101207.53;;;6.59;100.00
42591;BME280;28218;53.342;-6.216;2024-03-23T06:42:37;101204.63;;;6.62;100.00
42591;BME280;28218;53.342;-6.216;2024-03-23T06:45:05;101202.47;;;6.67;100.00
42591;BME280;28218;53.342;-6.216;2024-03-23T06:47:32;101211.03;;;6.69;100.00
42591;BME280;28218;53.342;-6.216;2024-03-23T06:50:00;101207.31;;;6.72;100.00
42591;BME280;28218;53.342;-6.216;2024-03-23T06:52:28;101202.22;;;6.70;100.00
42591;BME280;28218;53.342;-6.216;2024-03-23T06:54:55;101211.72;;;6.71;100.00
42591;BME280;28218;53.342;-6.216;2024-03-23T06:57:21;101207.19;;;6.73;100.00
42591;BME280;28218;53.342;-6.216;2024-03-23T06:59:48;101215.75;;;6.75;100.00
42591;BME280;28218;53.342;-6.216;2024-03-23T07:02:14;101218.06;;;6.69;100.00
42591;BME280;28218;53.342;-6.216;2024-03-23T07:04:41;101200.81;;;6.66;100.00
42591;BME280;28218;53.342;-6.216;2024-03-23T07:07:08;101203.84;;;6.71;100.00
42591;BME280;28218;53.342;-6.216;2024-03-23T07:09:35;101194.78;;;6.75;100.00
42591;BME280;28218;53.342;-6.216;2024-03-23T07:12:01;101191.78;;;6.80;100.00
42591;BME280;28218;53.342;-6.216;2024-03-23T07:14:28;101193.31;;;6.82;100.00
42591;BME280;28218;53.342;-6.216;2024-03-23T07:16:53;101190.22;;;6.77;100.00
42591;BME280;28218;53.342;-6.216;2024-03-23T07:19:20;101188.59;;;6.76;100.00
42591;BME280;28218;53.342;-6.216;2024-03-23T07:21:46;101179.06;;;6.75;100.00
42591;BME280;28218;53.342;-6.216;2024-03-23T07:24:13;101170.25;;;6.76;100.00
42591;BME280;28218;53.342;-6.216;2024-03-23T07:26:39;101180.47;;;6.79;100.00
42591;BME280;28218;53.342;-6.216;2024-03-23T07:29:06;101169.03;;;6.80;100.00
42591;BME280;28218;53.342;-6.216;2024-03-23T07:31:32;101160.38;;;6.89;100.00
42591;BME280;28218;53.342;-6.216;2024-03-23T07:33:59;101167.84;;;6.94;100.00
42591;BME280;28218;53.342;-6.216;2024-03-23T07:36:25;101166.75;;;6.97;100.00
42591;BME280;28218;53.342;-6.216;2024-03-23T07:38:52;101173.50;;;6.99;100.00
42591;BME280;28218;53.342;-6.216;2024-03-23T07:41:19;101172.53;;;7.00;100.00
42591;BME280;28218;53.342;-6.216;2024-03-23T07:43:47;101169.25;;;7.08;100.00
42591;BME280;28218;53.342;-6.216;2024-03-23T07:46:15;101169.00;;;7.11;100.00
42591;BME280;28218;53.342;-6.216;2024-03-23T07:48:44;101176.84;;;7.11;100.00
42591;BME280;28218;53.342;-6.216;2024-03-23T07:51:17;101165.25;;;7.13;100.00
42591;BME280;28218;53.342;-6.216;2024-03-23T07:53:45;101185.25;;;7.14;100.00
42591;BME280;28218;53.342;-6.216;2024-03-23T07:56:11;101190.91;;;7.20;100.00
42591;BME280;28218;53.342;-6.216;2024-03-23T07:58:40;101182.78;;;7.13;100.00
42591;BME280;28218;53.342;-6.216;2024-03-23T08:01:11;101181.13;;;7.12;100.00
42591;BME280;28218;53.342;-6.216;2024-03-23T08:03:38;101180.97;;;7.04;100.00
42591;BME280;28218;53.342;-6.216;2024-03-23T08:06:19;101182.19;;;7.00;100.00
42591;BME280;28218;53.342;-6.216;2024-03-23T08:08:48;101190.03;;;7.00;100.00
42591;BME280;28218;53.342;-6.216;2024-03-23T08:11:15;101184.53;;;7.03;100.00
42591;BME280;28218;53.342;-6.216;2024-03-23T08:13:42;101178.19;;;7.05;100.00
42591;BME280;28218;53.342;-6.216;2024-03-23T08:16:10;101182.22;;;7.09;100.00
42591;BME280;28218;53.342;-6.216;2024-03-23T08:18:39;101193.00;;;7.16;100.00
42591;BME280;28218;53.342;-6.216;2024-03-23T08:21:06;101191.78;;;7.20;100.00
42591;BME280;28218;53.342;-6.216;2024-03-23T08:23:34;101200.31;;;7.22;100.00
42591;BME280;28218;53.342;-6.216;2024-03-23T08:26:09;101195.72;;;7.14;100.00
42591;BME280;28218;53.342;-6.216;2024-03-23T08:28:36;101197.00;;;7.20;100.00
42591;BME280;28218;53.342;-6.216;2024-03-23T08:31:12;101190.81;;;7.21;100.00
42591;BME280;28218;53.342;-6.216;2024-03-23T08:33:38;101194.41;;;7.20;100.00
42591;BME280;28218;53.342;-6.216;2024-03-23T08:36:07;101211.19;;;7.17;100.00
42591;BME280;28218;53.342;-6.216;2024-03-23T08:38:33;101206.50;;;7.11;100.00
42591;BME280;28218;53.342;-6.216;2024-03-23T08:43:28;101195.84;;;7.03;100.00
42591;BME280;28218;53.342;-6.216;2024-03-23T08:46:06;101201.28;;;7.21;100.00
42591;BME280;28218;53.342;-6.216;2024-03-23T08:48:36;101182.56;;;7.35;100.00
42591;BME280;28218;53.342;-6.216;2024-03-23T08:51:04;101180.63;;;7.47;100.00
42591;BME280;28218;53.342;-6.216;2024-03-23T08:53:30;101178.28;;;7.63;100.00
42591;BME280;28218;53.342;-6.216;2024-03-23T08:55:58;101176.09;;;7.59;100.00
42591;BME280;28218;53.342;-6.216;2024-03-23T08:58:27;101156.19;;;7.66;100.00
42591;BME280;28218;53.342;-6.216;2024-03-23T09:00:56;101176.91;;;7.79;100.00
42591;BME280;28218;53.342;-6.216;2024-03-23T09:03:25;101167.09;;;7.81;100.00
42591;BME280;28218;53.342;-6.216;2024-03-23T09:05:54;101167.25;;;7.79;100.00
42591;BME280;28218;53.342;-6.216;2024-03-23T09:08:21;101172.91;;;7.75;100.00
42591;BME280;28218;53.342;-6.216;2024-03-23T09:10:48;101168.47;;;7.75;100.00
42591;BME280;28218;53.342;-6.216;2024-03-23T09:13:14;101155.50;;;7.74;100.00
42591;BME280;28218;53.342;-6.216;2024-03-23T09:15:47;101151.06;;;7.84;100.00
42591;BME280;28218;53.342;-6.216;2024-03-23T09:18:13;101144.72;;;7.96;100.00
42591;BME280;28218;53.342;-6.216;2024-03-23T09:20:40;101157.66;;;8.17;100.00
42591;BME280;28218;53.342;-6.216;2024-03-23T09:23:06;101143.69;;;8.26;100.00
42591;BME280;28218;53.342;-6.216;2024-03-23T09:25:39;101145.88;;;8.40;100.00
42591;BME280;28218;53.342;-6.216;2024-03-23T09:28:06;101151.63;;;8.54;100.00
42591;BME280;28218;53.342;-6.216;2024-03-23T09:30:35;101142.75;;;8.64;100.00
42591;BME280;28218;53.342;-6.216;2024-03-23T09:33:01;101139.56;;;8.70;100.00
42591;BME280;28218;53.342;-6.216;2024-03-23T09:35:28;101130.75;;;8.89;100.00
42591;BME280;28218;53.342;-6.216;2024-03-23T09:37:54;101124.56;;;8.99;100.00
42591;BME280;28218;53.342;-6.216;2024-03-23T09:40:22;101145.19;;;9.21;100.00
42591;BME280;28218;53.342;-6.216;2024-03-23T09:42:51;101140.31;;;9.26;100.00
42591;BME280;28218;53.342;-6.216;2024-03-23T09:45:23;101161.81;;;9.39;100.00
42591;BME280;28218;53.342;-6.216;2024-03-23T09:47:52;101147.91;;;9.29;100.00
42591;BME280;28218;53.342;-6.216;2024-03-23T09:50:19;101137.16;;;9.40;100.00
42591;BME280;28218;53.342;-6.216;2024-03-23T09:52:48;101140.47;;;9.42;100.00
42591;BME280;28218;53.342;-6.216;2024-03-23T09:55:15;101149.78;;;9.19;100.00
42591;BME280;28218;53.342;-6.216;2024-03-23T09:57:42;101144.50;;;9.01;100.00
42591;BME280;28218;53.342;-6.216;2024-03-23T10:00:09;101158.28;;;8.85;100.00
42591;BME280;28218;53.342;-6.216;2024-03-23T10:02:37;101183.22;;;8.72;100.00
42591;BME280;28218;53.342;-6.216;2024-03-23T10:05:04;101171.50;;;8.66;100.00
42591;BME280;28218;53.342;-6.216;2024-03-23T10:07:30;101174.41;;;8.63;100.00
42591;BME280;28218;53.342;-6.216;2024-03-23T10:09:57;101172.41;;;8.75;100.00
42591;BME280;28218;53.342;-6.216;2024-03-23T10:12:24;101162.94;;;8.91;100.00
42591;BME280;28218;53.342;-6.216;2024-03-23T10:14:51;101140.94;;;8.92;100.00
42591;BME280;28218;53.342;-6.216;2024-03-23T10:17:18;101162.59;;;9.04;100.00
42591;BME280;28218;53.342;-6.216;2024-03-23T10:19:47;101148.50;;;9.23;100.00
42591;BME280;28218;53.342;-6.216;2024-03-23T10:22:22;101133.88;;;9.38;100.00
42591;BME280;28218;53.342;-6.216;2024-03-23T10:24:50;101123.94;;;9.50;100.00
42591;BME280;28218;53.342;-6.216;2024-03-23T10:27:17;101145.94;;;9.67;100.00
42591;BME280;28218;53.342;-6.216;2024-03-23T10:29:46;101146.41;;;9.80;100.00
42591;BME280;28218;53.342;-6.216;2024-03-23T10:32:16;101153.97;;;9.83;100.00
42591;BME280;28218;53.342;-6.216;2024-03-23T10:34:44;101165.72;;;9.71;100.00
42591;BME280;28218;53.342;-6.216;2024-03-23T10:37:10;101153.97;;;9.83;100.00
42591;BME280;28218;53.342;-6.216;2024-03-23T10:39:39;101175.72;;;9.85;100.00
42591;BME280;28218;53.342;-6.216;2024-03-23T10:42:06;101165.44;;;9.74;100.00
42591;BME280;28218;53.342;-6.216;2024-03-23T10:44:34;101170.81;;;9.55;100.00
42591;BME280;28218;53.342;-6.216;2024-03-23T10:47:01;101155.38;;;9.52;100.00
42591;BME280;28218;53.342;-6.216;2024-03-23T10:49:30;101159.47;;;9.54;100.00
42591;BME280;28218;53.342;-6.216;2024-03-23T10:52:04;101159.41;;;9.64;100.00
42591;BME280;28218;53.342;-6.216;2024-03-23T10:54:32;101177.13;;;9.97;100.00
42591;BME280;28218;53.342;-6.216;2024-03-23T10:57:06;101175.16;;;9.99;100.00
42591;BME280;28218;53.342;-6.216;2024-03-23T10:59:37;101180.00;;;9.86;100.00
42591;BME280;28218;53.342;-6.216;2024-03-23T11:02:03;101182.41;;;9.80;100.00
42591;BME280;28218;53.342;-6.216;2024-03-23T11:07:01;101190.88;;;10.09;100.00
42591;BME280;28218;53.342;-6.216;2024-03-23T11:14:50;101200.91;;;10.58;100.00
42591;BME280;28218;53.342;-6.216;2024-03-23T11:17:21;101213.78;;;10.61;100.00
42591;BME280;28218;53.342;-6.216;2024-03-23T11:20:02;101204.88;;;10.88;100.00
42591;BME280;28218;53.342;-6.216;2024-03-23T11:22:49;101211.00;;;10.96;100.00
42591;BME280;28218;53.342;-6.216;2024-03-23T11:25:21;101201.56;;;10.86;100.00
42591;BME280;28218;53.342;-6.216;2024-03-23T11:27:51;101209.41;;;10.69;100.00
42591;BME280;28218;53.342;-6.216;2024-03-23T11:30:18;101222.63;;;10.78;100.00
42591;BME280;28218;53.342;-6.216;2024-03-23T11:32:46;101201.38;;;10.79;100.00
42591;BME280;28218;53.342;-6.216;2024-03-23T11:35:32;101225.47;;;10.58;100.00
42591;BME280;28218;53.342;-6.216;2024-03-23T11:40:41;101235.03;;;10.59;100.00
42591;BME280;28218;53.342;-6.216;2024-03-23T11:43:10;101248.75;;;10.71;100.00
42591;BME280;28218;53.342;-6.216;2024-03-23T11:45:48;101246.19;;;10.79;100.00
42591;BME280;28218;53.342;-6.216;2024-03-23T11:48:19;101234.28;;;10.75;100.00
42591;BME280;28218;53.342;-6.216;2024-03-23T11:50:48;101233.19;;;10.86;100.00
42591;BME280;28218;53.342;-6.216;2024-03-23T11:53:22;101231.16;;;11.06;100.00
42591;BME280;28218;53.342;-6.216;2024-03-23T11:55:51;101242.06;;;11.19;100.00
42591;BME280;28218;53.342;-6.216;2024-03-23T11:58:20;101237.81;;;11.26;100.00
42591;BME280;28218;53.342;-6.216;2024-03-23T12:00:58;101225.97;;;11.38;100.00
42591;BME280;28218;53.342;-6.216;2024-03-23T12:03:26;101235.22;;;11.42;100.00
42591;BME280;28218;53.342;-6.216;2024-03-23T12:06:01;101218.06;;;11.38;100.00
42591;BME280;28218;53.342;-6.216;2024-03-23T12:08:30;101232.25;;;11.37;100.00
42591;BME280;28218;53.342;-6.216;2024-03-23T12:11:13;101239.34;;;11.45;100.00
42591;BME280;28218;53.342;-6.216;2024-03-23T12:13:42;101238.88;;;11.49;100.00
42591;BME280;28218;53.342;-6.216;2024-03-23T12:18:37;101226.69;;;11.65;100.00
42591;BME280;28218;53.342;-6.216;2024-03-23T12:21:05;101230.00;;;11.75;100.00
42591;BME280;28218;53.342;-6.216;2024-03-23T12:23:33;101214.22;;;11.91;100.00
42591;BME280;28218;53.342;-6.216;2024-03-23T12:25:59;101238.47;;;11.95;100.00
42591;BME280;28218;53.342;-6.216;2024-03-23T12:28:26;101261.56;;;11.93;100.00
42591;BME280;28218;53.342;-6.216;2024-03-23T12:30:52;101232.53;;;11.93;100.00
42591;BME280;28218;53.342;-6.216;2024-03-23T12:33:22;101253.16;;;11.97;100.00
42591;BME280;28218;53.342;-6.216;2024-03-23T12:35:49;101224.63;;;12.09;100.00
42591;BME280;28218;53.342;-6.216;2024-03-23T12:38:17;101220.16;;;12.10;100.00
42591;BME280;28218;53.342;-6.216;2024-03-23T12:40:47;101226.59;;;12.15;100.00
42591;BME280;28218;53.342;-6.216;2024-03-23T12:43:14;101225.25;;;12.03;100.00
42591;BME280;28218;53.342;-6.216;2024-03-23T12:45:40;101215.53;;;12.03;100.00
42591;BME280;28218;53.342;-6.216;2024-03-23T12:48:07;101211.88;;;12.13;100.00
42591;BME280;28218;53.342;-6.216;2024-03-23T12:50:33;101210.56;;;12.33;100.00
42591;BME280;28218;53.342;-6.216;2024-03-23T12:53:04;101214.66;;;12.44;100.00
42591;BME280;28218;53.342;-6.216;2024-03-23T12:55:30;101229.72;;;12.43;100.00
42591;BME280;28218;53.342;-6.216;2024-03-23T12:57:57;101235.50;;;12.39;100.00
42591;BME280;28218;53.342;-6.216;2024-03-23T13:00:23;101216.69;;;12.25;100.00
42591;BME280;28218;53.342;-6.216;2024-03-23T13:02:49;101227.06;;;12.27;100.00
42591;BME280;28218;53.342;-6.216;2024-03-23T13:05:16;101225.25;;;12.36;100.00
42591;BME280;28218;53.342;-6.216;2024-03-23T13:07:42;101232.16;;;12.37;100.00
42591;BME280;28218;53.342;-6.216;2024-03-23T13:10:08;101226.91;;;12.28;100.00
42591;BME280;28218;53.342;-6.216;2024-03-23T13:12:35;101229.06;;;12.25;100.00
42591;BME280;28218;53.342;-6.216;2024-03-23T13:15:02;101245.41;;;12.12;100.00
42591;BME280;28218;53.342;-6.216;2024-03-23T13:17:29;101235.00;;;11.94;100.00
42591;BME280;28218;53.342;-6.216;2024-03-23T13:19:55;101256.44;;;11.83;100.00
42591;BME280;28218;53.342;-6.216;2024-03-23T13:22:22;101279.31;;;11.58;100.00
42591;BME280;28218;53.342;-6.216;2024-03-23T13:24:48;101281.06;;;11.41;100.00
42591;BME280;28218;53.342;-6.216;2024-03-23T13:27:15;101267.63;;;11.18;100.00
42591;BME280;28218;53.342;-6.216;2024-03-23T13:29:41;101246.34;;;11.12;100.00
42591;BME280;28218;53.342;-6.216;2024-03-23T13:32:08;101245.31;;;11.05;100.00
42591;BME280;28218;53.342;-6.216;2024-03-23T13:34:35;101249.28;;;11.09;100.00
42591;BME280;28218;53.342;-6.216;2024-03-23T13:37:02;101225.13;;;11.30;100.00
42591;BME280;28218;53.342;-6.216;2024-03-23T13:39:29;101222.91;;;11.59;100.00
42591;BME280;28218;53.342;-6.216;2024-03-23T13:41:57;101218.81;;;11.81;100.00
42591;BME280;28218;53.342;-6.216;2024-03-23T13:44:23;101221.97;;;11.93;100.00
42591;BME280;28218;53.342;-6.216;2024-03-23T13:46:50;101214.88;;;12.01;100.00
42591;BME280;28218;53.342;-6.216;2024-03-23T13:51:53;101218.81;;;12.22;100.00